Time;durP1;ratioP1;P1;durP2;ratioP2;P2;SDS_P1;SDS_P2;PMS_P1;PMS_P2;Temp;Humidity;BMP_temperature;BMP_pressure;BME280_temperature;BME280_humidity;BME280_pressure;Samples;Min_cycle;Max_cycle;Signal;HPM_P1;HPM_P2
2021/11/02 00:00:32;;;;;;;3.65;2.20;;;;;;;10.72;87.55;97923.97;5074105;28;20207;-74
2021/11/02 00:02:59;;;;;;;4.35;2.70;;;;;;;10.64;87.97;97930.88;5073772;28;20197;-73
2021/11/02 00:05:25;;;;;;;2.83;2.45;;;;;;;10.64;88.62;97938.09;5071885;28;20196;-74
2021/11/02 00:07:52;;;;;;;3.72;2.30;;;;;;;10.62;88.87;97935.53;5073539;28;20188;-73
2021/11/02 00:10:19;;;;;;;3.33;2.30;;;;;;;10.86;87.70;97926.34;5073144;28;20285;-75
2021/11/02 00:12:46;;;;;;;6.10;2.47;;;;;;;10.85;87.61;97925.50;5073655;28;20186;-73
2021/11/02 00:15:13;;;;;;;4.88;2.20;;;;;;;10.80;87.95;97922.34;5073331;28;20697;-72
2021/11/02 00:17:41;;;;;;;4.63;3.13;;;;;;;10.81;88.09;97923.22;5072986;28;20220;-72
2021/11/02 00:20:11;;;;;;;2.63;2.40;;;;;;;10.68;89.13;97933.31;5073636;28;20216;-74
2021/11/02 00:22:40;;;;;;;3.70;2.45;;;;;;;10.67;89.45;97931.59;5073422;28;20197;-72
2021/11/02 00:25:08;;;;;;;5.20;2.55;;;;;;;10.73;89.20;97931.06;5067752;28;20194;-72
2021/11/02 00:27:37;;;;;;;3.78;2.55;;;;;;;10.81;88.43;97923.22;5073627;28;20207;-71
2021/11/02 00:30:07;;;;;;;5.43;2.80;;;;;;;10.79;88.47;97920.66;5073768;28;20221;-71
2021/11/02 00:32:34;;;;;;;3.85;2.42;;;;;;;10.84;88.67;97928.31;5072935;28;20193;-74
2021/11/02 00:35:02;;;;;;;4.28;2.80;;;;;;;10.88;88.78;97924.38;5073706;28;20207;-72
2021/11/02 00:37:29;;;;;;;3.08;2.50;;;;;;;10.92;88.18;97922.25;5069621;28;20206;-72
2021/11/02 00:39:56;;;;;;;3.35;2.78;;;;;;;10.94;88.93;97923.00;5073626;28;20186;-73
2021/11/02 00:42:27;;;;;;;4.18;3.08;;;;;;;10.83;89.09;97908.63;5073352;28;20283;-73
2021/11/02 00:44:56;;;;;;;3.88;3.13;;;;;;;10.99;88.55;97913.53;5072522;28;20213;-72
2021/11/02 00:47:26;;;;;;;4.50;3.53;;;;;;;10.90;88.82;97911.66;5073098;28;20189;-74
2021/11/02 00:49:52;;;;;;;8.05;3.40;;;;;;;10.93;88.76;97913.22;5073134;28;20190;-72
2021/11/02 00:52:20;;;;;;;5.15;3.60;;;;;;;10.83;89.54;97913.13;5073411;28;20208;-74
2021/11/02 00:54:47;;;;;;;5.85;3.40;;;;;;;10.87;89.73;97916.44;5066272;28;20561;-72
2021/11/02 00:57:14;;;;;;;5.82;3.45;;;;;;;11.08;88.04;97903.81;5073309;28;20651;-74
2021/11/02 00:59:41;;;;;;;4.28;3.03;;;;;;;10.99;88.90;97910.84;5073216;28;20254;-72
2021/11/02 01:02:09;;;;;;;5.38;3.03;;;;;;;11.02;88.53;97909.72;5072847;28;20198;-72
2021/11/02 01:04:35;;;;;;;6.80;3.45;;;;;;;10.98;89.11;97908.28;5072562;28;20258;-72
2021/11/02 01:07:02;;;;;;;5.80;3.90;;;;;;;11.05;88.98;97906.75;5072811;28;20620;-74
2021/11/02 01:09:31;;;;;;;7.05;4.05;;;;;;;11.02;91.19;97907.88;5073084;28;20198;-72
2021/11/02 01:11:57;;;;;;;7.78;5.10;;;;;;;10.97;91.01;97907.44;5072251;28;20193;-73
2021/11/02 01:14:24;;;;;;;6.68;4.05;;;;;;;11.01;92.19;97908.88;5072669;28;20252;-73
2021/11/02 01:16:51;;;;;;;4.55;3.70;;;;;;;10.95;94.28;97916.63;5073132;28;20669;-75
2021/11/02 01:19:18;;;;;;;4.45;3.50;;;;;;;10.88;94.36;97908.22;5071789;28;20189;-74
2021/11/02 01:21:44;;;;;;;6.43;3.58;;;;;;;10.82;95.42;97914.13;5073062;28;20188;-74
2021/11/02 01:24:11;;;;;;;5.68;4.53;;;;;;;10.84;96.35;97909.47;5072456;28;20197;-72
2021/11/02 01:26:39;;;;;;;5.32;3.80;;;;;;;10.79;97.47;97926.03;5071716;28;20268;-72
2021/11/02 01:29:06;;;;;;;4.68;3.58;;;;;;;10.82;98.45;97908.75;5073110;28;20204;-74
2021/11/02 01:31:32;;;;;;;5.72;4.07;;;;;;;10.71;99.49;97906.97;5072472;28;20560;-73
2021/11/02 01:33:59;;;;;;;7.53;4.30;;;;;;;10.66;100.00;97917.28;5072343;28;20219;-74
2021/11/02 01:36:27;;;;;;;6.45;4.15;;;;;;;10.64;100.00;97919.25;5072634;28;20213;-74
2021/11/02 01:38:54;;;;;;;4.93;3.75;;;;;;;10.70;97.41;97918.75;5072866;28;20645;-72
2021/11/02 01:41:25;;;;;;;6.82;4.88;;;;;;;10.81;95.77;97915.13;5072521;28;20208;-75
2021/11/02 01:43:53;;;;;;;7.30;4.50;;;;;;;10.73;97.62;97910.38;5072582;28;20185;-73
2021/11/02 01:46:24;;;;;;;7.25;4.28;;;;;;;10.76;97.99;97923.59;5072114;28;20193;-74
2021/11/02 01:48:51;;;;;;;6.13;4.28;;;;;;;10.73;97.55;97929.22;5072920;28;20197;-73
2021/11/02 01:51:18;;;;;;;6.20;4.60;;;;;;;10.73;97.56;97921.16;5072147;28;20194;-73
2021/11/02 01:53:45;;;;;;;5.63;4.32;;;;;;;10.83;95.41;97914.00;5072599;28;20659;-73
2021/11/02 01:56:13;;;;;;;7.88;4.35;;;;;;;10.66;96.12;97921.81;5071691;28;20190;-74
2021/11/02 01:58:40;;;;;;;12.57;8.90;;;;;;;10.69;94.45;97913.47;5071761;28;20189;-74
2021/11/02 02:01:14;;;;;;;7.07;4.70;;;;;;;10.82;93.93;97909.59;5071655;28;20185;-73
2021/11/02 02:03:50;;;;;;;7.18;5.68;;;;;;;10.69;95.19;97913.47;5071777;28;20197;-74
2021/11/02 02:06:26;;;;;;;13.35;4.60;;;;;;;10.70;95.55;97904.44;5072157;28;20208;-73
2021/11/02 02:09:08;;;;;;;6.60;4.85;;;;;;;10.61;96.54;97906.91;5070659;28;20209;-75
2021/11/02 02:11:45;;;;;;;7.18;4.65;;;;;;;10.71;95.79;97903.44;5072301;28;20657;-75
2021/11/02 02:14:18;;;;;;;6.72;4.80;;;;;;;10.55;96.30;97904.75;5071295;28;20238;-74
2021/11/02 02:16:50;;;;;;;5.38;4.35;;;;;;;10.61;94.95;97904.22;5072009;28;20292;-74
2021/11/02 02:19:40;;;;;;;6.60;4.18;;;;;;;10.53;94.15;97898.63;5071247;28;20182;-72
2021/11/02 02:22:31;;;;;;;5.57;4.25;;;;;;;10.45;95.31;97895.75;5071877;28;20193;-73
2021/11/02 02:25:13;;;;;;;10.27;4.30;;;;;;;10.41;96.16;97894.31;5071497;28;20631;-72
2021/11/02 02:27:56;;;;;;;13.95;5.18;;;;;;;10.32;97.42;97898.63;5071204;28;20276;-73
2021/11/02 02:30:22;;;;;;;5.90;4.05;;;;;;;10.26;98.06;97899.09;5066092;28;20181;-73
2021/11/02 02:32:53;;;;;;;6.63;4.30;;;;;;;10.31;97.95;97896.03;5071585;28;20277;-74
2021/11/02 02:35:22;;;;;;;5.78;3.92;;;;;;;10.23;97.99;97900.22;5066608;28;20190;-72
2021/11/02 02:37:50;;;;;;;7.25;4.43;;;;;;;10.08;100.00;97897.94;5071346;28;20208;-71
2021/11/02 02:40:18;;;;;;;10.18;4.93;;;;;;;9.94;100.00;97894.56;5070813;28;20201;-74
2021/11/02 02:42:47;;;;;;;7.85;4.45;;;;;;;10.09;100.00;97894.28;5071410;28;20675;-72
2021/11/02 02:45:17;;;;;;;7.85;4.13;;;;;;;9.97;100.00;97888.06;5070667;28;20200;-71
2021/11/02 02:47:45;;;;;;;5.63;4.28;;;;;;;9.90;100.00;97901.16;5070557;28;20284;-73
2021/11/02 02:50:13;;;;;;;8.02;3.92;;;;;;;9.94;100.00;97907.16;5063792;28;20290;-73
2021/11/02 02:52:41;;;;;;;4.93;3.85;;;;;;;9.85;100.00;97894.47;5071342;28;20181;-73
2021/11/02 02:55:09;;;;;;;3.92;2.97;;;;;;;9.84;100.00;97898.16;5071069;28;20272;-72
2021/11/02 02:57:36;;;;;;;7.80;4.07;;;;;;;9.83;100.00;97889.22;5071058;28;20220;-73
2021/11/02 03:00:05;;;;;;;4.03;3.42;;;;;;;9.79;100.00;97888.63;5070890;28;20648;-73
2021/11/02 03:02:34;;;;;;;6.03;3.20;;;;;;;9.78;100.00;97883.38;5066382;28;20192;-73
2021/11/02 03:05:07;;;;;;;5.72;2.95;;;;;;;9.76;100.00;97883.50;5070354;28;20208;-73
2021/11/02 03:07:34;;;;;;;3.83;3.05;;;;;;;9.74;100.00;97893.50;5068391;28;20188;-72
2021/11/02 03:10:01;;;;;;;5.75;3.03;;;;;;;9.76;100.00;97886.16;5070622;28;20221;-73
2021/11/02 03:12:31;;;;;;;4.03;2.85;;;;;;;9.76;100.00;97882.63;5070737;28;20193;-73
2021/11/02 03:15:13;;;;;;;3.83;2.20;;;;;;;9.77;100.00;97887.06;5070123;28;20240;-73
2021/11/02 03:17:51;;;;;;;9.50;2.80;;;;;;;9.84;98.46;97884.72;5070758;28;20659;-73
2021/11/02 03:48:32;;;;;;;7.15;2.78;;;;;;;10.11;96.04;97871.66;5070518;28;20676;-72
2021/11/02 03:51:11;;;;;;;3.35;3.05;;;;;;;10.15;95.19;97873.13;5063921;28;20213;-74
2021/11/02 03:56:40;;;;;;;6.93;3.20;;;;;;;10.26;94.75;97888.34;5070174;28;20295;-73
2021/11/02 04:22:09;;;;;;;8.93;3.05;;;;;;;10.21;94.79;97882.50;5059538;28;20194;-73
2021/11/02 04:27:30;;;;;;;7.93;3.45;;;;;;;10.29;93.63;97892.63;5068857;28;20339;-72
2021/11/02 05:09:27;;;;;;;7.00;2.80;;;;;;;10.36;91.85;97875.00;5047987;28;20219;-73
2021/11/02 05:47:58;;;;;;;8.32;3.53;;;;;;;10.07;93.80;97870.22;5068153;28;20556;-72
2021/11/02 05:50:51;;;;;;;7.00;3.47;;;;;;;10.11;93.62;97863.59;5065701;28;20185;-73
2021/11/02 05:53:35;;;;;;;6.55;3.00;;;;;;;10.09;93.19;97868.25;5064846;28;20239;-72
2021/11/02 05:56:07;;;;;;;10.25;4.70;;;;;;;9.96;94.98;97864.88;5071628;28;20290;-72
2021/11/02 05:58:38;;;;;;;8.35;4.00;;;;;;;9.97;96.22;97870.13;5071648;28;20231;-72
2021/11/02 06:01:08;;;;;;;9.48;3.53;;;;;;;9.97;98.50;97854.00;5071448;28;20543;-72
2021/11/02 06:06:32;;;;;;;7.57;4.25;;;;;;;10.22;95.67;97858.16;5068533;28;20600;-75
2021/11/02 06:09:11;;;;;;;5.70;3.70;;;;;;;10.24;94.47;97860.72;5071734;28;20216;-73
2021/11/02 06:28:38;;;;;;;5.90;3.92;;;;;;;10.27;94.05;97863.16;5067830;28;20199;-74
2021/11/02 06:31:10;;;;;;;5.90;4.38;;;;;;;10.22;96.01;97855.47;5068619;28;20272;-72
2021/11/02 06:33:45;;;;;;;8.15;4.00;;;;;;;10.23;97.03;97853.63;5071195;28;20556;-73
2021/11/02 06:36:25;;;;;;;7.78;4.35;;;;;;;10.22;97.83;97857.28;5064423;28;20184;-73
2021/11/02 06:42:10;;;;;;;8.75;6.00;;;;;;;10.38;96.91;97863.13;5044142;28;20581;-74
2021/11/02 07:16:18;;;;;;;4.70;2.78;;;;;;;10.22;95.54;97868.94;5071141;28;20278;-73
2021/11/02 07:18:46;;;;;;;5.30;4.05;;;;;;;10.33;94.17;97869.88;5070845;28;20205;-74
2021/11/02 07:21:19;;;;;;;3.30;3.00;;;;;;;10.37;93.97;97876.72;5070752;28;20262;-73
2021/11/02 07:23:54;;;;;;;3.50;2.65;;;;;;;10.23;94.42;97875.16;5070911;28;20548;-74
2021/11/02 08:47:22;;;;;;;3.70;2.50;;;;;;;11.07;87.16;97889.47;5072341;28;20212;-74
2021/11/02 08:49:51;;;;;;;3.97;2.28;;;;;;;11.10;87.50;97891.03;5074012;28;20185;-73
2021/11/02 08:52:19;;;;;;;3.10;2.90;;;;;;;11.19;87.62;97889.38;5072837;28;20202;-73
2021/11/02 08:54:49;;;;;;;6.57;4.30;;;;;;;11.17;87.36;97891.34;5073367;28;20182;-74
2021/11/02 08:57:17;;;;;;;5.70;2.70;;;;;;;11.13;86.75;97896.19;5073115;28;20193;-75
2021/11/02 08:59:45;;;;;;;2.30;2.00;;;;;;;11.08;88.09;97884.97;5073613;28;20201;-73
2021/11/02 09:02:13;;;;;;;2.70;1.70;;;;;;;10.96;89.02;97889.56;5073195;28;20192;-74
2021/11/02 09:04:45;;;;;;;3.92;2.95;;;;;;;11.11;88.12;97889.22;5073331;28;20190;-74
2021/11/02 09:07:16;;;;;;;2.50;2.30;;;;;;;11.16;87.99;97890.50;5073105;28;20623;-73
2021/11/02 09:09:46;;;;;;;4.05;2.45;;;;;;;11.08;87.39;97887.66;5073463;28;20594;-76
2021/11/02 09:12:15;;;;;;;3.22;2.58;;;;;;;11.09;87.36;97893.88;5073407;28;20684;-73
2021/11/02 09:14:43;;;;;;;3.13;2.03;;;;;;;11.14;85.30;97894.34;5072957;28;20260;-74
2021/11/02 09:17:10;;;;;;;2.53;2.13;;;;;;;11.06;86.74;97895.88;5072902;28;20201;-73
2021/11/02 09:19:37;;;;;;;3.50;2.60;;;;;;;11.23;87.51;97897.06;5072300;28;20219;-74
2021/11/02 09:22:05;;;;;;;2.53;2.00;;;;;;;11.15;87.27;97896.06;5073082;28;20188;-75
2021/11/02 09:24:35;;;;;;;2.97;1.98;;;;;;;11.12;87.48;97902.53;5073115;28;20185;-74
2021/11/02 09:27:02;;;;;;;2.80;2.40;;;;;;;11.07;86.06;97900.25;5071680;28;20287;-73
2021/11/02 09:29:29;;;;;;;3.67;2.78;;;;;;;11.07;86.06;97899.41;5072928;28;20189;-74
2021/11/02 09:31:57;;;;;;;6.93;3.00;;;;;;;11.11;87.51;97894.63;5072325;28;20181;-74
2021/11/02 09:34:24;;;;;;;2.30;1.80;;;;;;;10.98;85.89;97900.19;5072952;28;20203;-72
2021/11/02 09:36:58;;;;;;;4.00;3.60;;;;;;;10.78;86.85;97894.69;5073016;28;20274;-73
2021/11/02 09:39:30;;;;;;;4.55;2.97;;;;;;;11.00;88.44;97898.22;5072331;28;20213;-74
2021/11/02 09:42:48;;;;;;;3.08;2.20;;;;;;;11.09;87.16;97899.28;5073370;28;20205;-74
2021/11/02 09:45:49;;;;;;;2.63;2.10;;;;;;;11.04;86.62;97902.38;4998403;28;20223;-74
2021/11/02 09:48:49;;;;;;;3.95;2.45;;;;;;;10.96;85.06;97899.47;5072803;28;20186;-74
2021/11/02 09:51:49;;;;;;;2.05;1.80;;;;;;;10.84;86.20;97904.09;5072402;28;20232;-73
2021/11/02 09:55:00;;;;;;;3.67;2.58;;;;;;;10.79;86.17;97895.56;5073046;28;20185;-74
2021/11/02 09:57:44;;;;;;;1.90;1.70;;;;;;;10.92;86.96;97898.91;5071848;28;20268;-73
2021/11/02 10:00:26;;;;;;;3.88;2.00;;;;;;;11.10;85.72;97907.19;5071255;28;20197;-75
2021/11/02 10:03:41;;;;;;;5.00;2.17;;;;;;;11.23;85.86;97907.84;5071085;28;20624;-73
2021/11/02 10:06:44;;;;;;;3.03;2.00;;;;;;;11.53;84.06;97897.19;5056148;28;20213;-74
2021/11/02 10:09:27;;;;;;;4.30;2.00;;;;;;;11.35;80.34;97900.53;5071208;28;20193;-73
2021/11/02 10:12:01;;;;;;;9.18;3.92;;;;;;;11.50;81.01;97901.00;5072551;28;20185;-74
2021/11/02 10:14:50;;;;;;;3.58;2.17;;;;;;;11.70;80.98;97901.94;5072159;28;20233;-74
2021/11/02 10:17:46;;;;;;;3.28;2.03;;;;;;;11.79;81.84;97902.94;5071516;28;20190;-74
2021/11/02 10:20:38;;;;;;;2.45;1.90;;;;;;;11.85;79.49;97905.09;5070786;28;20200;-73
2021/11/02 10:23:18;;;;;;;7.20;4.40;;;;;;;11.73;82.00;97904.34;5067416;28;20231;-74
2021/11/02 10:26:13;;;;;;;5.40;4.10;;;;;;;11.72;82.80;97897.25;5057593;28;20306;-75
2021/11/02 10:29:04;;;;;;;7.40;3.80;;;;;;;11.63;83.24;97900.78;5071390;28;20480;-74
2021/11/02 10:31:34;;;;;;;3.67;2.75;;;;;;;11.65;82.30;97898.81;5071457;28;21054;-72
2021/11/02 10:34:09;;;;;;;5.70;4.00;;;;;;;11.57;83.30;97899.47;5071441;28;20555;-75
2021/11/02 10:36:47;;;;;;;5.13;3.67;;;;;;;11.69;83.46;97894.84;5070479;28;20185;-74
2021/11/02 10:39:39;;;;;;;5.30;2.88;;;;;;;11.65;81.99;97888.00;5070786;28;20231;-73
2021/11/02 10:42:22;;;;;;;4.15;2.20;;;;;;;11.74;83.01;97891.72;5071281;28;20215;-74
2021/11/02 10:44:52;;;;;;;2.08;1.50;;;;;;;11.51;80.60;97894.66;5071595;28;20319;-74
2021/11/02 10:47:21;;;;;;;2.20;1.98;;;;;;;11.61;82.85;97886.59;5071776;28;20193;-74
2021/11/02 10:50:08;;;;;;;3.35;3.05;;;;;;;11.67;83.77;97886.03;5070414;28;20514;-74
2021/11/02 10:52:37;;;;;;;4.63;2.60;;;;;;;11.68;82.11;97887.72;5070934;28;20196;-73
2021/11/02 10:55:18;;;;;;;2.80;2.60;;;;;;;11.64;82.34;97889.84;5071868;28;20220;-75
2021/11/02 10:58:06;;;;;;;4.55;2.65;;;;;;;11.65;81.72;97888.88;5069388;28;20192;-73
2021/11/02 11:00:34;;;;;;;4.68;4.25;;;;;;;11.31;82.63;97884.78;5071031;28;20604;-75
2021/11/02 11:03:07;;;;;;;2.95;1.55;;;;;;;11.11;83.66;97892.75;5071261;28;20205;-74
2021/11/02 11:05:34;;;;;;;3.13;2.15;;;;;;;11.37;84.84;97895.84;5071209;28;20189;-73
2021/11/02 11:08:03;;;;;;;3.63;2.40;;;;;;;11.37;84.56;97884.22;5071156;28;20288;-74
2021/11/02 11:10:30;;;;;;;2.05;1.58;;;;;;;10.92;84.00;97890.84;5071043;28;20189;-75
2021/11/02 11:13:00;;;;;;;1.98;1.42;;;;;;;10.72;87.59;97886.28;5070207;28;20280;-74
2021/11/02 11:15:28;;;;;;;2.25;1.08;;;;;;;10.84;87.46;97890.63;5070804;28;20239;-74
2021/11/02 11:18:02;;;;;;;2.70;1.75;;;;;;;10.80;89.17;97891.88;5070751;28;20809;-74
2021/11/02 11:20:30;;;;;;;4.82;2.10;;;;;;;10.52;92.55;97899.63;5071150;28;20705;-75
2021/11/02 11:22:59;;;;;;;3.40;2.00;;;;;;;10.39;95.12;97904.34;5071983;28;20654;-76
2021/11/02 11:25:29;;;;;;;3.10;2.50;;;;;;;10.50;94.36;97903.44;5070435;28;20205;-75
2021/11/02 11:27:59;;;;;;;2.25;2.03;;;;;;;10.39;95.16;97896.25;5071218;28;20283;-73
2021/11/02 11:30:28;;;;;;;2.97;2.60;;;;;;;10.31;97.73;97896.94;5070866;28;20287;-74
2021/11/02 11:32:55;;;;;;;6.25;2.85;;;;;;;10.51;98.48;97902.44;5075326;28;20212;-72
2021/11/02 11:35:23;;;;;;;2.75;2.45;;;;;;;10.54;100.00;97902.19;5075361;28;20189;-73
2021/11/02 11:37:51;;;;;;;4.03;2.83;;;;;;;10.70;100.00;97897.22;5075461;28;20201;-75
2021/11/02 11:40:20;;;;;;;1.77;1.55;;;;;;;10.50;98.22;97895.38;5075451;28;20311;-73
2021/11/02 11:42:49;;;;;;;2.95;1.95;;;;;;;10.68;99.02;97890.25;5074362;28;20276;-73
2021/11/02 11:45:20;;;;;;;2.45;1.50;;;;;;;10.65;100.00;97891.38;5074723;28;20196;-73
2021/11/02 11:47:47;;;;;;;14.43;11.73;;;;;;;10.60;100.00;97888.19;5074355;28;20250;-73
2021/11/02 11:50:21;;;;;;;3.15;2.05;;;;;;;10.53;100.00;97887.03;5074397;28;20197;-73
2021/11/02 11:52:50;;;;;;;2.00;1.80;;;;;;;10.55;100.00;97874.28;5074451;28;20238;-74
2021/11/02 11:55:26;;;;;;;1.50;1.38;;;;;;;10.27;100.00;97875.75;5074781;28;20248;-75
2021/11/02 11:58:05;;;;;;;2.67;1.85;;;;;;;10.09;100.00;97884.38;5075012;28;20263;-75
2021/11/02 12:00:34;;;;;;;2.33;1.77;;;;;;;9.93;100.00;97883.97;5073347;28;20236;-75
2021/11/02 12:03:04;;;;;;;1.85;1.30;;;;;;;9.88;100.00;97884.34;5072559;28;20276;-74
2021/11/02 12:05:33;;;;;;;2.08;1.50;;;;;;;10.07;100.00;97890.88;5072907;28;20284;-73
2021/11/02 12:08:07;;;;;;;1.90;1.50;;;;;;;9.87;100.00;97885.31;5074353;28;20195;-75
2021/11/02 12:10:34;;;;;;;1.98;1.23;;;;;;;9.94;100.00;97885.66;5073165;28;20234;-74
2021/11/02 12:13:05;;;;;;;1.50;1.20;;;;;;;10.01;100.00;97876.94;5073311;28;20328;-74
2021/11/02 12:15:46;;;;;;;4.60;1.45;;;;;;;9.93;100.00;97879.44;5073515;28;20234;-73
2021/11/02 12:18:17;;;;;;;3.65;2.35;;;;;;;9.95;100.00;97876.59;5074601;28;20192;-74
2021/11/02 12:20:44;;;;;;;1.88;1.67;;;;;;;9.69;100.00;97882.28;5074661;28;20207;-74
2021/11/02 12:23:19;;;;;;;1.50;1.40;;;;;;;9.73;100.00;97867.63;5074192;28;20247;-75
2021/11/02 12:25:53;;;;;;;2.00;1.52;;;;;;;9.75;100.00;97879.09;5074020;28;20191;-74
2021/11/02 12:28:32;;;;;;;2.15;1.80;;;;;;;9.99;100.00;97875.34;5073970;28;20205;-75
2021/11/02 12:31:02;;;;;;;2.78;2.20;;;;;;;10.10;100.00;97875.31;5073591;28;20226;-74
2021/11/02 12:33:29;;;;;;;3.97;2.28;;;;;;;10.37;100.00;97872.16;5073556;28;20187;-73
2021/11/02 12:35:57;;;;;;;2.40;2.00;;;;;;;10.56;100.00;97862.53;5072967;28;20284;-74
2021/11/02 12:38:33;;;;;;;2.97;2.45;;;;;;;10.75;100.00;97864.50;5073230;28;20208;-74
2021/11/02 12:41:00;;;;;;;2.95;2.58;;;;;;;10.66;100.00;97871.53;5073974;28;20200;-74
2021/11/02 12:43:28;;;;;;;2.60;2.40;;;;;;;10.95;100.00;97863.63;5072319;28;20196;-74
2021/11/02 12:45:57;;;;;;;2.88;1.90;;;;;;;11.37;95.81;97857.28;5073697;28;20186;-74
2021/11/02 12:48:26;;;;;;;5.57;2.50;;;;;;;11.72;96.44;97862.22;5073575;28;20281;-74
2021/11/02 12:50:54;;;;;;;2.88;2.20;;;;;;;11.68;90.51;97858.06;5073357;28;20201;-74
2021/11/02 12:53:21;;;;;;;3.55;2.33;;;;;;;11.67;91.79;97854.53;5073869;28;20189;-75
2021/11/02 12:55:49;;;;;;;2.22;2.03;;;;;;;11.57;91.87;97858.19;5072649;28;20200;-75
2021/11/02 12:58:18;;;;;;;3.00;2.70;;;;;;;11.38;91.76;97859.00;5073161;28;20197;-74
2021/11/02 13:00:50;;;;;;;3.85;3.45;;;;;;;11.26;93.24;97863.59;5073178;28;20201;-74
2021/11/02 13:03:24;;;;;;;4.57;2.50;;;;;;;11.17;95.92;97864.41;5071776;28;20197;-74
2021/11/02 13:06:00;;;;;;;3.65;3.10;;;;;;;11.09;98.83;97875.03;5073366;28;20211;-73
2021/11/02 13:08:36;;;;;;;3.20;2.85;;;;;;;11.07;99.91;97873.31;5073505;28;20646;-75
2021/11/02 13:11:07;;;;;;;14.55;10.35;;;;;;;11.30;100.00;97869.59;5072747;28;20500;-74
2021/11/02 13:13:55;;;;;;;8.25;5.90;;;;;;;11.30;100.00;97867.75;5073814;28;20198;-74
2021/11/02 13:16:22;;;;;;;3.58;2.25;;;;;;;11.11;96.55;97878.44;5073240;28;20185;-75
2021/11/02 13:18:49;;;;;;;2.30;1.70;;;;;;;11.04;94.33;97878.97;5073845;28;20268;-74
2021/11/02 13:21:25;;;;;;;1.90;1.30;;;;;;;11.45;93.32;97882.56;5073720;28;20384;-74
2021/11/02 13:23:57;;;;;;;5.50;4.07;;;;;;;11.65;91.68;97877.22;5072343;28;20209;-75
2021/11/02 13:26:24;;;;;;;4.05;2.17;;;;;;;11.76;90.04;97873.53;5071124;28;20194;-74
2021/11/02 13:28:51;;;;;;;5.38;2.17;;;;;;;11.41;91.06;97878.41;5052895;28;20296;-74
2021/11/02 13:31:29;;;;;;;2.10;1.90;;;;;;;11.39;90.89;97876.84;5070503;28;20220;-75
2021/11/02 13:33:57;;;;;;;1.88;1.67;;;;;;;11.14;92.05;97881.72;5072889;28;20190;-74
2021/11/02 13:36:26;;;;;;;2.63;2.33;;;;;;;11.02;95.01;97891.72;5072932;28;20757;-74
2021/11/02 13:38:59;;;;;;;2.55;2.05;;;;;;;10.76;100.00;97898.50;5071104;28;20197;-73
2021/11/02 13:41:27;;;;;;;1.70;1.55;;;;;;;10.66;100.00;97886.84;5072537;28;20197;-75
2021/11/02 13:43:56;;;;;;;3.47;2.20;;;;;;;10.93;100.00;97900.59;5072987;28;20205;-74
2021/11/02 13:46:26;;;;;;;7.15;5.43;;;;;;;11.59;96.87;97883.16;5072048;28;20190;-72
2021/11/02 13:48:54;;;;;;;1.98;1.40;;;;;;;12.31;89.80;97877.47;5072609;28;20483;-73
2021/11/02 13:51:22;;;;;;;2.58;2.33;;;;;;;12.50;86.08;97875.75;5072656;28;20205;-74
2021/11/02 13:53:50;;;;;;;2.40;1.20;;;;;;;12.67;82.48;97876.91;5072906;28;20213;-74
2021/11/02 13:56:19;;;;;;;4.90;4.05;;;;;;;12.91;81.78;97885.38;5071383;28;20182;-73
2021/11/02 13:58:47;;;;;;;1.35;1.02;;;;;;;12.25;82.20;97880.72;5071463;28;20201;-73
2021/11/02 14:01:20;;;;;;;1.58;1.25;;;;;;;11.69;83.31;97890.28;5072432;28;20532;-73
2021/11/02 14:03:51;;;;;;;1.75;1.20;;;;;;;11.49;85.43;97891.22;5072184;28;20208;-75
2021/11/02 14:06:21;;;;;;;1.52;1.10;;;;;;;11.10;89.30;97900.97;5072410;28;20220;-73
2021/11/02 14:08:48;;;;;;;1.90;1.00;;;;;;;11.09;90.07;97894.75;5072174;28;20532;-75
2021/11/02 14:11:25;;;;;;;1.98;1.25;;;;;;;11.05;92.74;97895.97;5071635;28;20186;-73
2021/11/02 14:13:54;;;;;;;1.55;1.15;;;;;;;10.90;92.69;97889.22;5071794;28;20298;-75
2021/11/02 14:16:35;;;;;;;1.50;1.30;;;;;;;10.73;95.29;97883.47;5071923;28;20278;-74
2021/11/02 14:19:03;;;;;;;2.95;1.63;;;;;;;10.76;97.48;97898.50;5071698;28;20211;-74
2021/11/02 14:21:51;;;;;;;2.30;1.83;;;;;;;10.86;96.65;97899.44;5071635;28;20197;-74
2021/11/02 14:24:30;;;;;;;2.78;2.22;;;;;;;10.77;95.99;97898.38;5068401;28;20193;-74
2021/11/02 14:26:59;;;;;;;2.53;1.58;;;;;;;10.84;97.68;97907.63;5061602;28;20244;-73
2021/11/02 14:29:55;;;;;;;1.92;1.20;;;;;;;10.72;95.72;97906.00;5051701;28;20240;-74
2021/11/02 14:32:50;;;;;;;1.50;1.20;;;;;;;10.22;99.15;97917.34;5064881;28;20194;-74
2021/11/02 14:35:47;;;;;;;1.30;1.00;;;;;;;10.06;100.00;97918.72;5071735;28;20185;-74
2021/11/02 14:38:15;;;;;;;3.17;1.45;;;;;;;10.03;100.00;97923.38;5071116;28;20606;-76
2021/11/02 14:40:43;;;;;;;2.05;1.60;;;;;;;9.97;100.00;97923.03;5071573;28;20205;-73
2021/11/02 14:43:38;;;;;;;2.08;0.93;;;;;;;10.31;100.00;97922.94;5069081;28;20192;-74
2021/11/02 14:46:06;;;;;;;4.60;3.83;;;;;;;10.36;100.00;97918.91;5047083;28;20205;-73
2021/11/02 14:48:47;;;;;;;7.05;4.00;;;;;;;10.52;100.00;97914.94;5070984;28;20199;-74
2021/11/02 14:51:29;;;;;;;1.73;1.27;;;;;;;10.30;100.00;97913.19;5070439;28;20898;-74
2021/11/02 14:53:58;;;;;;;2.55;1.42;;;;;;;10.12;100.00;97926.28;5071353;28;20201;-74
2021/11/02 14:56:35;;;;;;;3.42;3.13;;;;;;;10.05;100.00;97914.34;5071429;28;20189;-74
2021/11/02 14:59:05;;;;;;;2.00;1.55;;;;;;;10.21;100.00;97918.31;5066720;28;20255;-74
2021/11/02 15:02:07;;;;;;;4.55;1.73;;;;;;;10.03;100.00;97922.53;5070959;28;20291;-74
2021/11/02 15:04:35;;;;;;;2.05;1.77;;;;;;;10.27;100.00;97916.09;5070269;28;20189;-74
2021/11/02 15:07:04;;;;;;;4.82;2.95;;;;;;;10.37;100.00;97920.59;5070167;28;20919;-74
2021/11/02 15:09:33;;;;;;;2.00;1.50;;;;;;;10.49;99.08;97920.53;5070880;28;20220;-73
2021/11/02 15:11:59;;;;;;;3.17;1.70;;;;;;;10.28;98.09;97917.81;5071131;28;20188;-74
2021/11/02 15:14:29;;;;;;;2.38;2.15;;;;;;;10.08;98.04;97917.63;5065969;28;20661;-74
2021/11/02 15:17:01;;;;;;;3.53;2.90;;;;;;;10.01;99.37;97925.31;5057667;28;20269;-74
2021/11/02 15:19:29;;;;;;;3.80;3.38;;;;;;;10.11;99.09;97925.44;5070841;28;20207;-73
2021/11/02 15:21:59;;;;;;;3.30;1.70;;;;;;;10.11;99.27;97922.75;5066071;28;20666;-75
2021/11/02 15:24:31;;;;;;;2.70;1.33;;;;;;;10.09;99.49;97923.88;5050962;28;20199;-74
2021/11/02 15:27:01;;;;;;;1.33;1.13;;;;;;;10.12;97.62;97912.84;5068464;28;20678;-74
2021/11/02 15:29:32;;;;;;;2.40;1.65;;;;;;;10.00;97.91;97925.47;5059928;28;20691;-74
2021/11/02 15:32:04;;;;;;;1.60;1.48;;;;;;;10.02;97.86;97931.59;5069861;28;20189;-74
2021/11/02 15:34:42;;;;;;;2.50;1.60;;;;;;;10.14;99.13;97927.03;5059601;28;20193;-72
2021/11/02 15:37:10;;;;;;;3.03;1.50;;;;;;;10.13;97.64;97922.59;5068505;28;20562;-74
2021/11/02 15:39:37;;;;;;;2.53;2.00;;;;;;;10.02;98.25;97931.59;5070427;28;20288;-74
2021/11/02 15:42:05;;;;;;;2.60;2.40;;;;;;;10.10;98.93;97926.41;5070187;28;20188;-72
2021/11/02 15:44:32;;;;;;;3.00;1.90;;;;;;;10.00;97.30;97934.38;5070697;28;20212;-72
2021/11/02 15:47:00;;;;;;;2.63;1.10;;;;;;;9.93;98.39;97932.34;5062942;28;20185;-75
2021/11/02 15:49:26;;;;;;;2.85;1.80;;;;;;;10.12;98.33;97931.66;5049953;28;20281;-75
2021/11/02 15:51:56;;;;;;;2.45;1.65;;;;;;;10.22;95.52;97933.47;5065478;28;20239;-75
2021/11/02 15:54:25;;;;;;;3.08;1.88;;;;;;;10.17;94.92;97934.81;5070406;28;20239;-74
2021/11/02 15:56:52;;;;;;;1.90;1.60;;;;;;;10.41;95.26;97930.13;5054112;28;20556;-73
2021/11/02 15:59:24;;;;;;;6.78;3.42;;;;;;;10.19;93.12;97940.94;5062257;28;20296;-73
2021/11/02 16:01:53;;;;;;;5.25;1.85;;;;;;;10.19;94.35;97931.03;5062136;28;20186;-74
2021/11/02 16:04:22;;;;;;;2.90;2.13;;;;;;;10.09;94.55;97932.78;5065789;28;20231;-74
2021/11/02 16:06:57;;;;;;;4.93;2.42;;;;;;;10.03;93.90;97933.28;5070659;28;20299;-73
2021/11/02 16:09:25;;;;;;;3.90;3.00;;;;;;;10.11;94.95;97936.19;5070257;28;20585;-73
2021/11/02 16:11:52;;;;;;;3.15;2.55;;;;;;;10.30;93.51;97934.69;5070410;28;20298;-74
2021/11/02 16:14:19;;;;;;;8.07;6.00;;;;;;;10.28;93.82;97940.16;5064783;28;20296;-74
2021/11/02 16:16:47;;;;;;;3.42;3.00;;;;;;;10.33;92.55;97939.81;5069434;28;20628;-73
2021/11/02 16:19:15;;;;;;;3.17;2.25;;;;;;;10.46;92.06;97939.66;5070553;28;20188;-73
2021/11/02 16:21:42;;;;;;;2.78;1.50;;;;;;;10.50;91.35;97947.34;5072160;28;20311;-75
2021/11/02 16:24:11;;;;;;;2.58;2.10;;;;;;;10.49;91.64;97953.72;5072849;28;20618;-75